Time;durP1;ratioP1;P1;durP2;ratioP2;P2;SDS_P1;SDS_P2;PMS_P1;PMS_P2;Temp;Humidity;BMP_temperature;BMP_pressure;BME280_temperature;BME280_humidity;BME280_pressure;Samples;Min_cycle;Max_cycle;Signal;HPM_P1;HPM_P2
2022/08/24 00:01:11;;;;;;;7.75;4.57;;;;;;;18.29;77.93;96122.94;5055871;28;20053;-60
2022/08/24 00:03:40;;;;;;;11.73;5.25;;;;;;;18.35;78.84;96127.78;5055829;28;20137;-61
2022/08/24 00:06:10;;;;;;;8.05;4.80;;;;;;;18.33;78.87;96120.94;5055746;28;20088;-61
2022/08/24 00:08:38;;;;;;;9.98;5.35;;;;;;;18.24;79.41;96119.81;5055894;28;20139;-61
2022/08/24 00:11:05;;;;;;;7.35;4.85;;;;;;;18.17;80.39;96122.94;5056083;28;20080;-62
2022/08/24 00:13:33;;;;;;;12.18;5.90;;;;;;;18.12;82.02;96124.25;5055760;28;20085;-61
2022/08/24 00:16:01;;;;;;;8.30;6.03;;;;;;;18.04;82.48;96125.63;5055518;28;20111;-61
2022/08/24 00:18:28;;;;;;;15.15;6.15;;;;;;;18.06;83.00;96129.00;5055549;28;20071;-61
2022/08/24 00:20:56;;;;;;;11.95;6.85;;;;;;;18.03;84.08;96123.09;5055545;28;20044;-61
2022/08/24 00:23:23;;;;;;;9.80;6.72;;;;;;;18.02;84.46;96119.59;5055456;28;20057;-61
2022/08/24 00:25:51;;;;;;;11.50;6.78;;;;;;;18.05;85.16;96119.38;5055403;28;20083;-61
2022/08/24 00:28:18;;;;;;;14.63;7.40;;;;;;;18.05;85.88;96129.09;5055330;28;20399;-61
2022/08/24 00:30:45;;;;;;;12.18;7.18;;;;;;;18.03;86.19;96129.22;5055279;28;20045;-60
2022/08/24 00:33:12;;;;;;;9.43;7.22;;;;;;;18.04;86.69;96138.00;5055608;28;20114;-61
2022/08/24 00:35:39;;;;;;;8.80;6.88;;;;;;;18.02;86.67;96139.91;5055212;28;20099;-61
2022/08/24 00:38:08;;;;;;;9.60;7.20;;;;;;;18.04;86.88;96141.50;5055121;28;20049;-60
2022/08/24 00:40:42;;;;;;;11.50;7.55;;;;;;;18.01;87.04;96136.44;5055254;28;20402;-61
2022/08/24 00:43:10;;;;;;;26.02;8.27;;;;;;;18.01;88.07;96135.59;5055252;28;20041;-61
2022/08/24 00:45:44;;;;;;;9.63;8.32;;;;;;;18.03;88.56;96137.16;5055022;28;20052;-61
2022/08/24 00:48:15;;;;;;;11.52;8.10;;;;;;;18.06;88.62;96144.00;5055261;28;20107;-61
2022/08/24 00:50:53;;;;;;;14.10;8.05;;;;;;;18.07;88.82;96140.44;5054952;28;20394;-61
2022/08/24 00:53:25;;;;;;;9.82;8.10;;;;;;;18.07;89.27;96145.72;5054826;28;20041;-61
2022/08/24 00:55:56;;;;;;;12.98;8.70;;;;;;;18.06;89.75;96136.06;5054540;28;20056;-61
2022/08/24 00:58:28;;;;;;;11.35;7.85;;;;;;;18.01;90.22;96147.03;5054914;28;20068;-61
2022/08/24 01:01:01;;;;;;;8.77;7.93;;;;;;;17.99;90.86;96145.44;5054667;28;20045;-60
2022/08/24 01:03:30;;;;;;;13.57;8.15;;;;;;;18.06;90.93;96152.81;5054820;28;20049;-61
2022/08/24 01:05:59;;;;;;;12.23;8.47;;;;;;;18.08;90.77;96152.69;5054663;28;20452;-61
2022/08/24 01:08:28;;;;;;;9.15;7.90;;;;;;;18.05;91.08;96160.84;5053599;28;20076;-61
2022/08/24 01:10:59;;;;;;;14.15;8.82;;;;;;;18.08;91.10;96165.06;5054604;28;20128;-61
2022/08/24 01:13:27;;;;;;;8.40;7.57;;;;;;;18.05;91.30;96169.66;5054669;28;20114;-61
2022/08/24 01:16:00;;;;;;;10.13;7.82;;;;;;;18.05;91.81;96174.09;5054421;28;20118;-60
2022/08/24 01:21:17;;;;;;;11.70;7.97;;;;;;;18.19;91.49;96173.94;5054434;28;20461;-61
2022/08/24 01:23:48;;;;;;;10.05;7.75;;;;;;;18.28;91.21;96164.47;5054364;28;20129;-60
2022/08/24 01:26:19;;;;;;;10.13;7.15;;;;;;;18.28;90.45;96166.28;5054230;28;20136;-60
2022/08/24 01:28:50;;;;;;;8.27;7.03;;;;;;;18.37;90.22;96173.53;5054225;28;20084;-61
2022/08/24 01:31:20;;;;;;;13.60;8.05;;;;;;;18.43;89.93;96177.50;5054277;28;20505;-61
2022/08/24 01:33:49;;;;;;;;;;;;;;;18.46;88.50;96174.63;5054596;28;20487;-61
2022/08/24 01:36:22;;;;;;;9.10;7.00;;;;;;;18.48;88.44;96177.97;5054154;28;19921;-61
2022/08/24 01:38:51;;;;;;;11.32;7.47;;;;;;;18.50;88.45;96173.44;5054036;28;20049;-61
2022/08/24 01:41:18;;;;;;;11.80;7.88;;;;;;;18.55;88.54;96181.84;5054018;28;20071;-61
2022/08/24 01:43:45;;;;;;;8.02;7.07;;;;;;;18.54;87.94;96180.16;5053865;28;20437;-60
2022/08/24 01:46:12;;;;;;;11.65;7.70;;;;;;;18.46;87.85;96192.31;5053912;28;20088;-61
2022/08/24 01:48:39;;;;;;;16.13;7.72;;;;;;;18.45;87.88;96191.44;5053936;28;20044;-60
2022/08/24 01:51:06;;;;;;;13.38;8.70;;;;;;;18.43;87.99;96186.28;5053817;28;20076;-61
2022/08/24 01:53:34;;;;;;;9.55;7.20;;;;;;;18.37;86.42;96183.25;5053798;28;20123;-61
2022/08/24 01:56:03;;;;;;;11.55;7.75;;;;;;;18.36;86.72;96179.75;5053585;28;20065;-61
2022/08/24 01:58:30;;;;;;;13.18;7.60;;;;;;;18.36;86.57;96182.41;5053640;28;20045;-60
2022/08/24 02:00:57;;;;;;;13.32;7.07;;;;;;;18.37;86.56;96184.13;5053555;28;20053;-61
2022/08/24 02:03:24;;;;;;;9.77;6.68;;;;;;;18.39;85.16;96186.66;5053426;28;20098;-61
2022/08/24 02:05:51;;;;;;;9.30;6.80;;;;;;;18.39;85.03;96187.47;5053609;28;20056;-61
2022/08/24 02:08:18;;;;;;;9.80;6.28;;;;;;;18.31;84.82;96188.03;5053653;28;20045;-61
2022/08/24 02:10:45;;;;;;;6.68;5.70;;;;;;;18.24;84.31;96189.47;5053473;28;20076;-61
2022/08/24 02:13:14;;;;;;;9.65;6.32;;;;;;;18.22;83.91;96190.53;5053449;28;20552;-60
2022/08/24 02:15:41;;;;;;;9.57;6.28;;;;;;;18.27;84.50;96188.41;5053359;28;20053;-60
2022/08/24 02:18:10;;;;;;;11.02;5.55;;;;;;;18.25;84.15;96192.97;5053353;28;20059;-61
2022/08/24 02:20:37;;;;;;;12.32;6.43;;;;;;;18.21;84.81;96202.09;5053007;28;20498;-60
2022/08/24 02:23:07;;;;;;;13.35;6.43;;;;;;;18.24;83.63;96204.53;5053311;28;20457;-61
2022/08/24 02:25:35;;;;;;;10.48;6.47;;;;;;;18.29;83.80;96200.56;5053218;28;20053;-60
2022/08/24 02:28:02;;;;;;;13.63;6.57;;;;;;;18.39;83.82;96194.59;5053282;28;20049;-60
2022/08/24 02:30:31;;;;;;;12.98;6.05;;;;;;;18.46;83.23;96194.97;5053249;28;20049;-61
2022/08/24 02:32:59;;;;;;;11.20;5.70;;;;;;;18.48;83.55;96193.06;5053119;28;20083;-61
2022/08/24 02:35:29;;;;;;;10.65;6.30;;;;;;;18.54;83.38;96193.41;5053224;28;20072;-61
2022/08/24 02:37:56;;;;;;;10.45;6.20;;;;;;;18.58;83.21;96183.44;5053122;28;20045;-61
2022/08/24 02:40:24;;;;;;;8.52;6.53;;;;;;;18.59;82.99;96187.78;5053251;28;20060;-61
2022/08/24 02:42:51;;;;;;;9.45;5.65;;;;;;;18.66;82.35;96182.88;5053179;28;20045;-61
2022/08/24 02:45:19;;;;;;;14.15;5.90;;;;;;;18.69;82.38;96188.75;5052921;28;20049;-61
2022/08/24 02:47:47;;;;;;;9.98;6.13;;;;;;;18.76;82.92;96193.59;5053131;28;20651;-61
2022/08/24 02:50:17;;;;;;;10.55;6.20;;;;;;;18.77;82.60;96192.59;5052968;28;20056;-61
2022/08/24 02:52:45;;;;;;;8.57;6.35;;;;;;;18.81;81.79;96186.09;5053151;28;20076;-61
2022/08/24 02:55:14;;;;;;;14.88;6.22;;;;;;;18.79;82.86;96182.75;5052823;28;20049;-61
2022/08/24 02:57:41;;;;;;;14.98;6.55;;;;;;;18.78;83.26;96189.84;5052889;28;20453;-61
2022/08/24 03:00:12;;;;;;;13.27;6.20;;;;;;;18.82;82.82;96186.00;5052912;28;20124;-61
2022/08/24 03:02:38;;;;;;;;;;;;;;;18.90;82.55;96184.59;5053219;28;20099;-61
2022/08/24 03:05:09;;;;;;;15.40;6.57;;;;;;;18.94;82.91;96178.06;5052837;28;19921;-61
2022/08/24 03:07:36;;;;;;;11.35;6.57;;;;;;;19.00;82.31;96176.75;5052841;28;20056;-60
2022/08/24 03:10:04;;;;;;;14.32;5.95;;;;;;;19.03;81.52;96181.81;5052720;28;20132;-61
2022/08/24 03:12:31;;;;;;;6.63;5.45;;;;;;;19.02;81.30;96182.78;5052947;28;20057;-61
2022/08/24 03:14:58;;;;;;;11.38;5.97;;;;;;;18.99;81.68;96173.25;5052813;28;20051;-60
2022/08/24 03:17:25;;;;;;;12.68;6.28;;;;;;;18.97;81.79;96169.88;5052851;28;20040;-61
2022/08/24 03:19:52;;;;;;;8.15;6.10;;;;;;;18.96;82.20;96162.88;5052649;28;20049;-60
2022/08/24 03:22:21;;;;;;;12.73;6.30;;;;;;;18.91;80.39;96175.66;5052675;28;20059;-61
2022/08/24 03:24:48;;;;;;;12.73;6.28;;;;;;;18.98;79.59;96179.50;5052571;28;20088;-61
2022/08/24 03:27:15;;;;;;;8.85;5.32;;;;;;;19.00;79.18;96171.44;5052411;28;20092;-60
2022/08/24 03:29:42;;;;;;;9.90;5.90;;;;;;;18.94;80.11;96180.72;5052529;28;20049;-61
2022/08/24 03:32:09;;;;;;;7.68;5.20;;;;;;;18.87;79.28;96169.75;5055017;28;20052;-60
2022/08/24 03:34:36;;;;;;;5.35;4.70;;;;;;;18.88;79.19;96167.94;5056310;28;20487;-60
2022/08/24 03:37:04;;;;;;;11.00;5.45;;;;;;;18.94;77.87;96162.16;5056258;28;20049;-61
2022/08/24 03:39:33;;;;;;;8.95;5.10;;;;;;;18.96;78.85;96167.34;5056383;28;20045;-61
2022/08/24 03:42:00;;;;;;;9.68;5.22;;;;;;;18.96;79.18;96172.66;5056278;28;20120;-60
2022/08/24 03:44:27;;;;;;;7.45;6.00;;;;;;;18.94;78.60;96170.94;5056346;28;20047;-61
2022/08/24 03:46:55;;;;;;;11.45;6.25;;;;;;;18.91;78.22;96176.47;5056244;28;20146;-61
2022/08/24 03:49:22;;;;;;;8.10;5.30;;;;;;;18.95;78.52;96174.44;5056117;28;20633;-61
2022/08/24 03:51:49;;;;;;;8.60;5.30;;;;;;;18.99;78.31;96180.38;5056061;28;20068;-61
2022/08/24 03:54:17;;;;;;;9.70;5.32;;;;;;;18.99;78.66;96180.38;5056085;28;20044;-61
2022/08/24 03:56:46;;;;;;;8.18;5.40;;;;;;;18.96;78.26;96180.59;5055926;28;20144;-61
2022/08/24 03:59:14;;;;;;;11.90;5.40;;;;;;;18.97;78.84;96180.50;5055976;28;20553;-61
2022/08/24 04:01:41;;;;;;;9.90;5.55;;;;;;;18.92;79.01;96178.19;5056190;28;20053;-60
2022/08/24 04:04:08;;;;;;;10.02;5.25;;;;;;;18.97;78.30;96184.94;5055767;28;20052;-61
2022/08/24 04:06:35;;;;;;;8.95;5.20;;;;;;;18.96;78.65;96185.91;5055782;28;20056;-61
2022/08/24 04:09:02;;;;;;;11.20;5.35;;;;;;;18.91;79.29;96184.44;5055811;28;20076;-61
2022/08/24 04:11:30;;;;;;;9.32;5.40;;;;;;;18.92;78.98;96191.44;5055708;28;20481;-61
2022/08/24 04:13:59;;;;;;;7.78;5.75;;;;;;;18.92;78.88;96188.78;5055626;28;20506;-60
2022/08/24 04:16:27;;;;;;;9.07;5.00;;;;;;;19.00;79.04;96187.34;5055657;28;20136;-60
2022/08/24 04:18:56;;;;;;;10.40;5.38;;;;;;;19.09;78.78;96184.00;5055554;28;20053;-61
2022/08/24 04:21:25;;;;;;;12.88;5.53;;;;;;;19.11;78.53;96189.19;5055605;28;20410;-60
2022/08/24 04:23:53;;;;;;;11.65;5.15;;;;;;;19.22;78.15;96196.28;5055522;28;20052;-61
2022/08/24 04:26:22;;;;;;;7.05;5.78;;;;;;;19.31;78.13;96193.78;5055420;28;20053;-61
2022/08/24 04:28:50;;;;;;;8.27;5.55;;;;;;;19.42;80.23;96189.41;5055335;28;20049;-60
2022/08/24 04:31:20;;;;;;;9.30;5.85;;;;;;;19.54;80.68;96200.84;5055333;28;20139;-61
2022/08/24 04:33:48;;;;;;;8.65;5.78;;;;;;;19.63;81.20;96207.22;5055350;28;20127;-61
2022/08/24 04:36:17;;;;;;;14.30;5.75;;;;;;;19.68;81.55;96205.03;5055240;28;20053;-61
2022/08/24 04:38:45;;;;;;;9.60;5.78;;;;;;;19.73;81.13;96202.88;5055211;28;20106;-61
2022/08/24 04:41:14;;;;;;;16.00;6.53;;;;;;;19.81;81.64;96207.56;5055065;28;20502;-60
2022/08/24 04:43:44;;;;;;;15.52;5.57;;;;;;;19.88;81.42;96202.59;5055107;28;20409;-60
2022/08/24 04:46:14;;;;;;;11.85;5.35;;;;;;;19.93;80.87;96206.53;5054940;28;20052;-61
2022/08/24 04:48:44;;;;;;;8.13;5.70;;;;;;;20.01;81.44;96202.44;5055033;28;20107;-60
2022/08/24 04:51:13;;;;;;;9.65;5.47;;;;;;;20.07;81.05;96209.91;5054945;28;20052;-61
2022/08/24 04:53:41;;;;;;;21.20;6.40;;;;;;;20.14;80.77;96218.22;5054890;28;20178;-61
2022/08/24 04:56:12;;;;;;;11.10;6.30;;;;;;;20.23;80.68;96217.47;5054744;28;20106;-60
2022/08/24 04:58:39;;;;;;;10.45;5.75;;;;;;;20.37;79.94;96213.66;5054842;28;20106;-61
2022/08/24 05:01:08;;;;;;;11.55;5.40;;;;;;;20.46;78.28;96217.34;5054722;28;20049;-60
2022/08/24 05:03:35;;;;;;;13.07;5.93;;;;;;;20.54;79.15;96219.38;5054865;28;20129;-61
2022/08/24 05:06:04;;;;;;;10.40;6.03;;;;;;;20.58;78.74;96224.31;5054684;28;20133;-60
2022/08/24 05:08:32;;;;;;;11.52;5.78;;;;;;;20.62;78.77;96227.53;5054708;28;20109;-60
2022/08/24 05:10:59;;;;;;;5.40;4.72;;;;;;;20.65;74.24;96215.81;5054498;28;20434;-60
2022/08/24 05:13:27;;;;;;;10.90;5.03;;;;;;;20.60;74.36;96233.97;5054507;28;20084;-61
2022/08/24 05:15:54;;;;;;;8.95;5.55;;;;;;;20.64;75.05;96224.75;5054503;28;20558;-61
2022/08/24 05:18:21;;;;;;;10.05;5.45;;;;;;;20.77;74.02;96221.91;5054576;28;20049;-61
2022/08/24 05:20:48;;;;;;;8.30;5.07;;;;;;;21.12;72.40;96230.53;5054388;28;20510;-61
2022/08/24 05:23:18;;;;;;;6.80;4.43;;;;;;;21.57;72.44;96226.66;5054484;28;20061;-61
2022/08/24 05:25:45;;;;;;;8.45;4.60;;;;;;;22.18;70.51;96227.50;5054142;28;20056;-61
2022/08/24 05:28:12;;;;;;;6.82;4.00;;;;;;;22.73;67.13;96222.63;5054333;28;20482;-61
2022/08/24 05:30:40;;;;;;;4.32;3.70;;;;;;;23.27;65.56;96216.72;5054213;28;20482;-61
2022/08/24 05:33:07;;;;;;;7.95;4.13;;;;;;;23.75;63.35;96210.50;5054250;28;20084;-61
2022/08/24 05:35:38;;;;;;;4.43;3.58;;;;;;;24.11;60.99;96213.22;5054085;28;20461;-61
2022/08/24 05:38:05;;;;;;;5.72;3.30;;;;;;;24.42;59.43;96210.22;5054035;28;20613;-61
2022/08/24 05:40:34;;;;;;;9.05;4.13;;;;;;;24.54;59.83;96208.13;5054158;28;20041;-61
2022/08/24 05:43:01;;;;;;;6.88;3.60;;;;;;;24.70;58.85;96206.56;5053973;28;20098;-61
2022/08/24 05:45:28;;;;;;;7.13;3.72;;;;;;;25.05;57.25;96209.34;5053867;28;20049;-61
2022/08/24 05:47:55;;;;;;;11.73;3.55;;;;;;;24.94;56.84;96210.44;5053823;28;20053;-61
2022/08/24 05:50:22;;;;;;;8.82;3.50;;;;;;;25.06;57.11;96208.34;5053865;28;20048;-61
2022/08/24 05:52:49;;;;;;;6.38;3.63;;;;;;;25.12;55.96;96215.75;5053819;28;20041;-61
2022/08/24 05:55:17;;;;;;;6.15;3.70;;;;;;;25.06;57.33;96213.69;5053001;28;20049;-61
2022/08/24 05:57:45;;;;;;;5.60;3.22;;;;;;;25.30;56.62;96210.31;5053778;28;20102;-61
2022/08/24 06:00:14;;;;;;;10.70;3.35;;;;;;;25.37;54.32;96218.53;5053893;28;20136;-61
2022/08/24 06:02:41;;;;;;;6.40;3.30;;;;;;;25.45;55.15;96217.75;5053773;28;20380;-61
2022/08/24 06:05:09;;;;;;;6.13;3.40;;;;;;;25.57;56.02;96227.19;5053627;28;20393;-61
2022/08/24 06:07:36;;;;;;;13.00;3.00;;;;;;;25.82;55.36;96226.44;5053515;28;20049;-61
2022/08/24 06:10:04;;;;;;;17.60;4.45;;;;;;;25.93;54.58;96222.63;5053490;28;20041;-60
2022/08/24 06:12:32;;;;;;;9.20;3.22;;;;;;;26.07;53.40;96223.84;5053524;28;20045;-60
2022/08/24 06:15:00;;;;;;;8.48;3.53;;;;;;;26.23;52.53;96223.88;5053587;28;20049;-61
2022/08/24 06:17:27;;;;;;;7.88;3.22;;;;;;;26.09;52.38;96222.69;5053400;28;20048;-60
2022/08/24 06:19:55;;;;;;;16.08;3.78;;;;;;;26.02;53.31;96210.09;5053475;28;20072;-61
2022/08/24 06:22:22;;;;;;;14.05;3.20;;;;;;;26.11;52.32;96215.34;5053299;28;20052;-61
2022/08/24 06:27:34;;;;;;;16.10;3.40;;;;;;;26.14;52.50;96219.50;5053258;28;20060;-60
2022/08/24 06:30:08;;;;;;;16.35;4.18;;;;;;;26.31;52.85;96216.91;5053324;28;20052;-61
2022/08/24 06:32:35;;;;;;;12.32;3.90;;;;;;;26.40;54.79;96210.53;5053234;28;20048;-61
2022/08/24 06:35:03;;;;;;;11.57;4.03;;;;;;;26.54;52.89;96211.69;5053073;28;20056;-60
2022/08/24 06:37:30;;;;;;;11.85;4.28;;;;;;;26.74;52.34;96211.38;5053109;28;20045;-61
2022/08/24 06:39:58;;;;;;;10.40;3.70;;;;;;;26.53;52.50;96227.97;5053104;28;20421;-61
2022/08/24 06:42:28;;;;;;;13.25;4.05;;;;;;;26.31;53.48;96223.06;5053183;28;20086;-60
2022/08/24 06:44:55;;;;;;;15.00;4.10;;;;;;;26.22;53.19;96224.06;5053015;28;20052;-60
2022/08/24 06:47:24;;;;;;;13.55;4.32;;;;;;;26.27;53.60;96231.59;5052934;28;20118;-61
2022/08/24 06:49:51;;;;;;;17.55;4.63;;;;;;;26.39;54.03;96234.84;5053003;28;20068;-60
2022/08/24 06:52:19;;;;;;;12.48;4.00;;;;;;;26.55;52.83;96228.63;5052985;28;20049;-60
2022/08/24 06:54:46;;;;;;;10.02;4.13;;;;;;;26.58;52.44;96229.13;5052833;28;20049;-61
2022/08/24 06:57:13;;;;;;;22.00;4.47;;;;;;;26.61;53.60;96226.13;5053013;28;20080;-60
2022/08/24 06:59:41;;;;;;;21.80;3.90;;;;;;;26.73;53.73;96231.97;5052923;28;20064;-61
2022/08/24 07:02:09;;;;;;;23.05;4.75;;;;;;;26.66;52.80;96236.34;5053033;28;20425;-61
2022/08/24 07:04:37;;;;;;;12.90;3.80;;;;;;;26.43;52.49;96241.53;5052982;28;20053;-61
2022/08/24 07:07:05;;;;;;;22.15;4.15;;;;;;;26.28;54.36;96246.69;5055274;28;20084;-61
2022/08/24 07:09:32;;;;;;;13.23;4.40;;;;;;;26.47;54.49;96254.44;5056783;28;20084;-60
2022/08/24 07:12:00;;;;;;;19.30;3.78;;;;;;;26.18;53.71;96246.81;5056743;28;20077;-60
2022/08/24 07:14:28;;;;;;;24.98;4.53;;;;;;;26.21;53.88;96251.84;5056913;28;20123;-61
2022/08/24 07:16:56;;;;;;;20.83;4.15;;;;;;;26.24;54.55;96247.00;5056703;28;20052;-61
2022/08/24 07:19:23;;;;;;;20.48;4.53;;;;;;;26.48;53.35;96240.03;5056744;28;20372;-60
2022/08/24 07:21:56;;;;;;;13.75;4.22;;;;;;;26.39;52.78;96246.38;5056682;28;20052;-60
2022/08/24 07:24:24;;;;;;;23.85;4.30;;;;;;;26.27;54.09;96247.69;5056524;28;20135;-60
2022/08/24 07:26:51;;;;;;;17.63;4.80;;;;;;;26.39;54.93;96250.91;5056570;28;20475;-60
2022/08/24 07:29:18;;;;;;;23.70;4.75;;;;;;;26.41;53.18;96256.94;5056601;28;20053;-61
2022/08/24 07:31:47;;;;;;;20.17;4.32;;;;;;;26.66;52.79;96249.75;5056448;28;20106;-61
2022/08/24 07:34:15;;;;;;;13.15;3.47;;;;;;;26.77;52.21;96250.41;5056505;28;20049;-61
2022/08/24 07:36:43;;;;;;;22.73;4.53;;;;;;;26.77;52.25;96263.81;5056355;28;20053;-61
2022/08/24 07:39:13;;;;;;;16.88;4.07;;;;;;;26.74;52.26;96259.66;5056341;28;20084;-61
2022/08/24 07:41:42;;;;;;;28.50;4.55;;;;;;;26.68;52.39;96271.03;5056265;28;20498;-61
2022/08/24 07:44:11;;;;;;;12.93;3.63;;;;;;;26.65;53.13;96256.13;5056323;28;20052;-62
2022/08/24 07:46:39;;;;;;;15.98;4.13;;;;;;;27.10;52.63;96253.97;5056130;28;20296;-61
2022/08/24 07:49:07;;;;;;;16.20;3.53;;;;;;;27.23;50.42;96250.75;5056176;28;20525;-60
2022/08/24 07:51:35;;;;;;;19.40;4.15;;;;;;;27.04;51.25;96257.31;5056112;28;20045;-60
2022/08/24 07:54:03;;;;;;;17.52;3.90;;;;;;;26.69;51.82;96257.47;5056294;28;20041;-60
2022/08/24 07:56:32;;;;;;;24.88;4.32;;;;;;;26.71;52.83;96258.16;5055558;28;20145;-60
2022/08/24 07:58:59;;;;;;;11.23;3.80;;;;;;;26.49;52.28;96260.47;5055889;28;20095;-60
2022/08/24 08:01:27;;;;;;;18.48;4.05;;;;;;;26.32;52.88;96248.91;5055892;28;20045;-61
2022/08/24 08:03:54;;;;;;;18.05;3.50;;;;;;;26.30;53.33;96266.97;5055940;28;20053;-61
2022/08/24 08:06:21;;;;;;;16.15;3.58;;;;;;;26.37;53.04;96253.75;5055950;28;20459;-61
2022/08/24 08:08:49;;;;;;;14.98;3.85;;;;;;;26.66;54.65;96262.34;5055837;28;20053;-61
2022/08/24 08:11:16;;;;;;;13.07;3.67;;;;;;;27.05;52.31;96259.00;5055652;28;20490;-61
2022/08/24 08:13:45;;;;;;;14.13;4.05;;;;;;;27.08;52.54;96258.66;5055741;28;20494;-61
2022/08/24 08:16:12;;;;;;;10.75;3.20;;;;;;;27.22;50.67;96265.19;5055730;28;20068;-60
2022/08/24 08:18:40;;;;;;;15.77;3.90;;;;;;;27.32;51.60;96256.09;5055251;28;20415;-60
2022/08/24 08:24:13;;;;;;;14.55;3.65;;;;;;;27.52;50.58;96263.75;5055555;28;20099;-61
2022/08/24 08:26:40;;;;;;;15.27;3.47;;;;;;;27.32;50.12;96262.28;5055597;28;20051;-61
2022/08/24 08:29:09;;;;;;;9.98;3.28;;;;;;;27.57;51.20;96261.41;5055348;28;20131;-61
2022/08/24 08:31:37;;;;;;;14.73;3.28;;;;;;;27.75;49.77;96251.28;5055644;28;20507;-61
2022/08/24 08:34:05;;;;;;;13.90;2.95;;;;;;;27.89;50.30;96262.31;5055391;28;20456;-61
2022/08/24 08:36:33;;;;;;;15.70;3.20;;;;;;;28.18;49.46;96251.91;5055404;28;20053;-61
2022/08/24 08:39:00;;;;;;;15.20;3.03;;;;;;;28.53;49.01;96255.06;5055164;28;20406;-61
2022/08/24 08:42:06;;;;;;;18.15;3.53;;;;;;;28.66;47.38;96248.25;5055274;28;20552;-60
2022/08/24 08:44:51;;;;;;;18.48;3.97;;;;;;;28.71;47.43;96248.56;5040441;28;20044;-61
2022/08/24 08:47:42;;;;;;;19.65;3.45;;;;;;;28.45;47.65;96245.22;5055057;28;20457;-61
2022/08/24 08:50:20;;;;;;;19.50;3.70;;;;;;;28.34;48.13;96253.69;5054895;28;20454;-60
2022/08/24 08:53:15;;;;;;;19.02;3.70;;;;;;;28.29;47.95;96256.91;5055041;28;20139;-61
2022/08/24 08:55:48;;;;;;;21.63;3.45;;;;;;;28.32;47.82;96269.19;5054807;28;20049;-60
2022/08/24 08:58:36;;;;;;;18.80;3.30;;;;;;;28.20;48.72;96266.84;5054968;28;20063;-61
2022/08/24 09:01:16;;;;;;;19.63;4.22;;;;;;;28.31;48.94;96273.72;5054776;28;20057;-61
2022/08/24 09:04:08;;;;;;;17.65;3.40;;;;;;;28.04;47.85;96273.16;5054751;28;20045;-61
2022/08/24 09:06:54;;;;;;;24.50;3.75;;;;;;;27.95;48.82;96266.13;5035910;28;20041;-60
2022/08/24 09:09:36;;;;;;;17.48;3.30;;;;;;;28.16;49.62;96245.88;5054614;28;20053;-60
2022/08/24 09:12:15;;;;;;;14.40;3.13;;;;;;;28.37;48.81;96258.72;5054517;28;20060;-61
2022/08/24 09:15:17;;;;;;;14.23;3.60;;;;;;;28.21;48.10;96255.09;5054605;28;20040;-61
2022/08/24 09:18:18;;;;;;;18.90;4.22;;;;;;;28.14;49.52;96264.84;5054457;28;20049;-60
2022/08/24 09:21:14;;;;;;;12.45;3.35;;;;;;;28.43;49.01;96267.91;5054443;28;20383;-60
2022/08/24 09:23:51;;;;;;;26.10;3.85;;;;;;;28.25;48.83;96258.25;5054234;28;20064;-60
2022/08/24 09:26:27;;;;;;;16.15;3.17;;;;;;;28.30;48.22;96260.44;5054256;28;20045;-60
2022/08/24 09:29:07;;;;;;;17.67;3.17;;;;;;;28.21;47.97;96259.63;5053360;28;20049;-59
2022/08/24 09:31:59;;;;;;;13.30;3.80;;;;;;;27.92;49.13;96271.84;5053690;28;20057;-59
2022/08/24 09:34:35;;;;;;;10.95;3.05;;;;;;;27.53;48.71;96265.41;5053059;28;21116;-61
2022/08/24 09:37:24;;;;;;;16.42;3.35;;;;;;;27.38;49.41;96258.09;5054121;28;20107;-62
2022/08/24 09:40:01;;;;;;;23.98;3.35;;;;;;;27.18;51.03;96255.78;5050980;28;20128;-61
2022/08/24 09:43:00;;;;;;;14.13;3.10;;;;;;;27.17;51.44;96253.25;5053943;28;20045;-60
2022/08/24 09:46:08;;;;;;;25.10;3.70;;;;;;;26.77;52.60;96248.59;5053866;28;20044;-59
2022/08/24 09:49:06;;;;;;;16.00;2.88;;;;;;;26.58;52.73;96247.91;5020079;28;20048;-59
2022/08/24 09:52:14;;;;;;;13.40;3.42;;;;;;;26.34;53.62;96227.28;5053967;28;20045;-61
2022/08/24 09:55:16;;;;;;;18.35;4.05;;;;;;;26.01;54.52;96213.78;5043136;28;20064;-60
2022/08/24 09:57:57;;;;;;;21.45;4.25;;;;;;;25.89;55.04;96214.09;5050590;28;20076;-61
2022/08/24 10:00:28;;;;;;;20.00;4.30;;;;;;;25.91;55.26;96205.91;5053644;28;20049;-61
2022/08/24 10:03:03;;;;;;;16.15;4.18;;;;;;;25.95;55.41;96199.22;5053681;28;20127;-61
2022/08/24 10:05:47;;;;;;;15.15;4.00;;;;;;;26.06;55.28;96192.69;5053635;28;20051;-60
2022/08/24 10:08:26;;;;;;;19.48;3.65;;;;;;;26.11;54.70;96183.19;5053516;28;20060;-60
2022/08/24 10:11:05;;;;;;;23.38;4.22;;;;;;;26.13;54.89;96174.97;5053546;28;20067;-60
2022/08/24 10:13:42;;;;;;;20.25;3.88;;;;;;;26.09;54.15;96174.47;5053422;28;20379;-61
2022/08/24 10:16:29;;;;;;;23.45;3.80;;;;;;;26.23;53.81;96172.13;5053543;28;20089;-60
2022/08/24 10:19:12;;;;;;;22.13;4.55;;;;;;;26.27;54.82;96183.38;5053459;28;20126;-61
2022/08/24 10:21:52;;;;;;;27.67;4.18;;;;;;;26.27;54.42;96200.25;5053392;28;20081;-60
2022/08/24 10:24:35;;;;;;;27.27;4.63;;;;;;;26.20;52.73;96196.56;5053352;28;20045;-60
2022/08/24 10:27:18;;;;;;;17.55;3.85;;;;;;;26.15;54.64;96204.28;5053199;28;20131;-60
2022/08/24 10:30:05;;;;;;;20.88;4.50;;;;;;;26.11;55.02;96203.75;5053202;28;20418;-60
2022/08/24 10:32:50;;;;;;;38.13;4.97;;;;;;;26.02;54.26;96210.94;5053176;28;20053;-60
2022/08/24 10:35:23;;;;;;;25.52;4.68;;;;;;;25.86;54.80;96193.81;5053107;28;20127;-60
2022/08/24 10:41:16;;;;;;;24.52;4.53;;;;;;;25.88;55.55;96206.25;5052899;28;20414;-61
2022/08/24 10:44:08;;;;;;;21.13;4.25;;;;;;;25.99;54.56;96203.25;5053175;28;20056;-61
2022/08/24 10:46:48;;;;;;;23.98;4.38;;;;;;;25.92;53.83;96207.59;5053083;28;20045;-61
2022/08/24 10:49:51;;;;;;;21.73;4.88;;;;;;;26.07;54.75;96207.78;5052918;28;20579;-61
2022/08/24 10:52:56;;;;;;;16.17;4.35;;;;;;;26.20;53.31;96199.25;5052905;28;20395;-60
2022/08/24 10:55:30;;;;;;;31.95;4.90;;;;;;;26.30;53.33;96196.44;5045767;28;20091;-61
2022/08/24 10:58:36;;;;;;;20.90;4.35;;;;;;;26.52;53.97;96196.81;5052961;28;20127;-61
2022/08/24 11:01:18;;;;;;;32.00;4.80;;;;;;;26.68;51.92;96191.44;5052937;28;20045;-61
2022/08/24 11:03:52;;;;;;;17.23;3.67;;;;;;;26.45;51.71;96210.88;5052873;28;20494;-61
2022/08/24 11:06:21;;;;;;;21.42;4.43;;;;;;;26.39;53.10;96226.78;5052731;28;20058;-61
2022/08/24 11:08:57;;;;;;;28.08;5.22;;;;;;;26.32;52.68;96215.88;5052719;28;20115;-61
2022/08/24 11:11:28;;;;;;;19.58;5.35;;;;;;;26.25;52.18;96211.16;5052758;28;20126;-61
2022/08/24 11:13:59;;;;;;;29.38;4.68;;;;;;;26.20;53.00;96209.97;5052880;28;20052;-61
2022/08/24 11:16:29;;;;;;;;;;;;;;;26.36;53.81;96199.31;5053204;28;20045;-61
2022/08/24 11:18:58;;;;;;;30.65;4.55;;;;;;;26.40;53.81;96193.63;5052754;28;19964;-60
2022/08/24 11:21:36;;;;;;;23.85;4.78;;;;;;;26.58;52.85;96193.44;5052596;28;20136;-61
2022/08/24 11:24:06;;;;;;;23.70;5.32;;;;;;;26.55;53.00;96183.06;5052752;28;20099;-61
2022/08/24 11:26:49;;;;;;;24.55;4.97;;;;;;;26.65;51.82;96186.41;5052607;28;20483;-61
2022/08/24 11:29:17;;;;;;;20.42;4.38;;;;;;;26.84;52.62;96185.22;5052689;28;20144;-61
2022/08/24 11:31:49;;;;;;;24.35;4.97;;;;;;;26.95;52.92;96204.63;5052670;28;20110;-61
2022/08/24 11:34:20;;;;;;;21.60;5.10;;;;;;;27.00;51.15;96207.69;5052579;28;20071;-61
2022/08/24 11:36:48;;;;;;;31.85;5.53;;;;;;;27.11;51.44;96206.47;5052551;28;20052;-61
2022/08/24 11:39:21;;;;;;;25.20;4.95;;;;;;;27.11;51.21;96206.47;5052697;28;20399;-61
2022/08/24 11:41:56;;;;;;;22.58;5.25;;;;;;;27.10;51.58;96227.13;5052482;28;20057;-61
2022/08/24 11:44:45;;;;;;;22.88;5.43;;;;;;;27.19;52.39;96213.69;5052535;28;20049;-61
2022/08/24 11:47:38;;;;;;;19.00;4.38;;;;;;;27.15;51.62;96221.22;5052473;28;20048;-61
2022/08/24 11:50:18;;;;;;;21.90;4.82;;;;;;;26.93;50.92;96209.31;5033991;28;20124;-60
2022/08/24 11:52:53;;;;;;;27.23;5.40;;;;;;;26.72;51.83;96218.72;5054389;28;20398;-61
2022/08/24 11:55:28;;;;;;;33.10;5.95;;;;;;;26.72;52.98;96222.25;5055708;28;20057;-60
2022/08/24 11:58:03;;;;;;;26.30;5.43;;;;;;;26.61;52.56;96230.66;5056065;28;20052;-60
2022/08/24 12:00:44;;;;;;;23.20;5.35;;;;;;;26.37;53.80;96238.50;5055998;28;20049;-60
2022/08/24 12:03:39;;;;;;;28.38;6.60;;;;;;;26.22;53.44;96232.09;5055984;28;20052;-61